LIME/BGY METAR and TAF weather

Enter ICAO airport designator
Station Type Date Time Source
LIME METAR 2021/07/27 21:20 UTC NOAA

LIME 272120Z 33002KT 9999 BKN045 21/18 Q1015 NOSIG


Station Type Date Time Source
LIME Decoded METAR 2021/07/27 21:20 UTC NOAA

Bergamo / Orio Al Serio, Italy (LIME) 45-40N 009-42E 237M
Jul 27, 2021 - 05:20 PM EDT / 2021.07.27 2120 UTC
Wind: from the NNW (330 degrees) at 2 MPH (2 KT):0
Visibility: greater than 7 mile(s):0
Sky conditions: mostly cloudy
Temperature: 69 F (21 C)
Dew Point: 64 F (18 C)
Relative Humidity: 82%
Pressure (altimeter): 29.97 in. Hg (1015 hPa)
ob: LIME 272120Z 33002KT 9999 BKN045 21/18 Q1015 NOSIG
cycle: 21

Station Type Date Time Source
LIME TAF 2021/07/27 18:21 UTC NOAA

TAF LIME 271700Z 2718/2818 VRB05KT 9999 BKN030
TEMPO 2718/2724 4000 TSRA
TEMPO 2800/2812 SHRA

Example: see airport list